Frontier Kotobuki — 3EXC5 — position and weather

sailwx.info

Track history (hours):
 
Tides and Currents Weather Stations Pressure Air Temp Water Temp Dewpoint Dewpoint Depression Visibility Wind Speed Wind Dir Waves Ship Positions

Frontier Kotobuki

Last reported at 2014-Jul-14 02:21 UTC. Time now 2014-Jul-23 07:51 UTC.
Position N 21°60' E 120°06'.
Warning: this ship's position is 9 days out of date.

Length 290 m; draft 11.4 m.

Type: Cargo ship. MMSI: 355036000.

Date/timePositionNaut miles runAvg speedWind from/ knotsBaromVisibWave heightAir tempDewpointWater temp
2014-Jul-14 02:21N 21°60' E 120°06'1213.7
2014-Jul-14 01:31N 22°11' E 120°07'1313.4
2014-Jul-14 00:33N 22°24' E 120°09'1111.2
2014-Jul-13 23:32N 22°33' E 120°16'4 3.2
2014-Jul-13 22:20N 22°33' E 120°21'0 0.0
2014-Jul-13 21:32N 22°33' E 120°21'0 0.0
2014-Jul-13 20:32N 22°33' E 120°21'0 0.0
2014-Jul-13 19:32N 22°33' E 120°21'0 0.0
2014-Jul-13 18:32N 22°33' E 120°21'0 0.0
2014-Jul-13 17:32N 22°33' E 120°21'0 0.0
2014-Jul-13 16:32N 22°33' E 120°21'0 0.0
2014-Jul-13 15:32N 22°33' E 120°21'0 0.0
2014-Jul-13 14:32N 22°33' E 120°21'0 0.0
2014-Jul-13 13:32N 22°33' E 120°21'0 0.0
2014-Jul-13 12:32N 22°33' E 120°21'0 0.0
2014-Jul-13 11:32N 22°33' E 120°21'0 0.0
2014-Jul-13 08:32N 22°33' E 120°21'0 0.0
2014-Jul-13 07:32N 22°33' E 120°21'0 0.0
2014-Jul-13 05:32N 22°33' E 120°21'0 0.0
2014-Jul-13 04:26N 22°33' E 120°21'0 0.0
2014-Jul-13 03:32N 22°33' E 120°21'0 0.0
2014-Jul-13 02:32N 22°33' E 120°21'0 0.0
2014-Jul-13 01:26N 22°33' E 120°21'0 0.0
2014-Jul-13 00:32N 22°33' E 120°21'0 0.0
2014-Jul-12 23:32N 22°33' E 120°21'0 0.0
2014-Jul-12 22:26N 22°33' E 120°21'0 0.0
2014-Jul-12 21:32N 22°33' E 120°21'0 0.0
2014-Jul-12 20:32N 22°33' E 120°21'0 0.0
2014-Jul-12 19:32N 22°33' E 120°21'0 0.0
2014-Jul-12 18:29N 22°33' E 120°21'0 0.0
2014-Jul-12 16:29N 22°33' E 120°21'0 0.0
2014-Jul-12 14:23N 22°33' E 120°21'0 0.0
2014-Jul-12 12:29N 22°33' E 120°21'0 0.0
2014-Jul-12 11:29N 22°33' E 120°21'0 0.0
2014-Jul-12 06:08N 22°33' E 120°21'0 0.0
2014-Jul-12 05:32N 22°33' E 120°21'0 0.0
2014-Jul-12 04:33N 22°33' E 120°21'4 3.5
2014-Jul-12 03:33N 22°33' E 120°17'2 2.0
2014-Jul-12 02:28N 22°32' E 120°15'0 0.1
2014-Jul-12 01:28N 22°31' E 120°15'0 0.3
2014-Jul-12 00:28N 22°31' E 120°15'0 0.1
2014-Jul-11 23:28N 22°31' E 120°15'0 0.0
2014-Jul-11 21:28N 22°31' E 120°15'0 0.0
2014-Jul-11 20:16N 22°31' E 120°15'0 0.0
2014-Jul-11 19:28N 22°31' E 120°15'0 0.0
2014-Jul-11 18:28N 22°31' E 120°15'0 0.1
2014-Jul-11 17:28N 22°31' E 120°15'0 0.0
2014-Jul-11 16:28N 22°31' E 120°15'0 0.1
2014-Jul-11 15:22N 22°31' E 120°15'0 0.1
2014-Jul-11 14:28N 22°31' E 120°15'0 0.0
2014-Jul-11 13:28N 22°31' E 120°15'0 0.1
2014-Jul-11 12:28N 22°31' E 120°15'0 0.0
2014-Jul-11 11:28N 22°31' E 120°15'0 0.1
2014-Jul-11 10:28N 22°31' E 120°15'0 0.0
2014-Jul-11 09:28N 22°31' E 120°15'0 0.0
2014-Jul-11 08:28N 22°31' E 120°15'0 0.0
2014-Jul-11 07:28N 22°31' E 120°15'0 0.1
2014-Jul-11 06:28N 22°31' E 120°15'0 0.1
2014-Jul-11 05:28N 22°31' E 120°15'0 0.0
2014-Jul-11 04:28N 22°31' E 120°15'0 0.2
2014-Jul-11 03:28N 22°31' E 120°15'0 0.2
2014-Jul-11 02:28N 22°31' E 120°15'0 0.0
2014-Jul-11 01:10N 22°31' E 120°15'0 0.2
2014-Jul-11 00:28N 22°31' E 120°15'0 0.2
2014-Jul-10 23:28N 22°31' E 120°15'0 0.0
2014-Jul-10 22:28N 22°31' E 120°15'0 0.0
2014-Jul-10 19:28N 22°31' E 120°15'0 0.0
2014-Jul-10 18:28N 22°31' E 120°15'0 0.1
2014-Jul-10 17:28N 22°31' E 120°15'0 0.0
2014-Jul-10 16:28N 22°31' E 120°15'55811.8
2014-Jul-08 17:16N 20°14' E 110°34'8 9.7
2014-Jul-08 16:28N 20°12' E 110°26'8 9.1
2014-Jul-08 15:33N 20°10' E 110°18'1010.2
2014-Jul-08 14:33N 20°09' E 110°07'130 9.9
2014-Jul-08 01:22N 21°33' E 108°21'2 0.0
2014-Jul-06 05:17N 21°34' E 108°20'  
Track history (hours):
 
Tides and Currents Weather Stations Pressure Air Temp Water Temp Dewpoint Dewpoint Depression Visibility Wind Speed Wind Dir Waves Ship Positions

Frontier Kotobuki

Last reported at 2014-Jul-14 02:21 UTC. Time now 2014-Jul-23 07:51 UTC.
Position N 21°60' E 120°06'.
Warning: this ship's position is 9 days out of date.

Length 290 m; draft 11.4 m.

Type: Cargo ship. MMSI: 355036000.

Date/timePositionNaut miles runAvg speedWind from/ knotsBaromVisibWave heightAir tempDewpointWater temp
2014-Jul-14 02:21N 21°60' E 120°06'1213.7
2014-Jul-14 01:31N 22°11' E 120°07'1313.4
2014-Jul-14 00:33N 22°24' E 120°09'1111.2
2014-Jul-13 23:32N 22°33' E 120°16'4 3.2
2014-Jul-13 22:20N 22°33' E 120°21'0 0.0
2014-Jul-13 21:32N 22°33' E 120°21'0 0.0
2014-Jul-13 20:32N 22°33' E 120°21'0 0.0
2014-Jul-13 19:32N 22°33' E 120°21'0 0.0
2014-Jul-13 18:32N 22°33' E 120°21'0 0.0
2014-Jul-13 17:32N 22°33' E 120°21'0 0.0
2014-Jul-13 16:32N 22°33' E 120°21'0 0.0
2014-Jul-13 15:32N 22°33' E 120°21'0 0.0
2014-Jul-13 14:32N 22°33' E 120°21'0 0.0
2014-Jul-13 13:32N 22°33' E 120°21'0 0.0
2014-Jul-13 12:32N 22°33' E 120°21'0 0.0
2014-Jul-13 11:32N 22°33' E 120°21'0 0.0
2014-Jul-13 08:32N 22°33' E 120°21'0 0.0
2014-Jul-13 07:32N 22°33' E 120°21'0 0.0
2014-Jul-13 05:32N 22°33' E 120°21'0 0.0
2014-Jul-13 04:26N 22°33' E 120°21'0 0.0
2014-Jul-13 03:32N 22°33' E 120°21'0 0.0
2014-Jul-13 02:32N 22°33' E 120°21'0 0.0
2014-Jul-13 01:26N 22°33' E 120°21'0 0.0
2014-Jul-13 00:32N 22°33' E 120°21'0 0.0
2014-Jul-12 23:32N 22°33' E 120°21'0 0.0
2014-Jul-12 22:26N 22°33' E 120°21'0 0.0
2014-Jul-12 21:32N 22°33' E 120°21'0 0.0
2014-Jul-12 20:32N 22°33' E 120°21'0 0.0
2014-Jul-12 19:32N 22°33' E 120°21'0 0.0
2014-Jul-12 18:29N 22°33' E 120°21'0 0.0
2014-Jul-12 16:29N 22°33' E 120°21'0 0.0
2014-Jul-12 14:23N 22°33' E 120°21'0 0.0
2014-Jul-12 12:29N 22°33' E 120°21'0 0.0
2014-Jul-12 11:29N 22°33' E 120°21'0 0.0
2014-Jul-12 06:08N 22°33' E 120°21'0 0.0
2014-Jul-12 05:32N 22°33' E 120°21'0 0.0
2014-Jul-12 04:33N 22°33' E 120°21'4 3.5
2014-Jul-12 03:33N 22°33' E 120°17'2 2.0
2014-Jul-12 02:28N 22°32' E 120°15'0 0.1
2014-Jul-12 01:28N 22°31' E 120°15'0 0.3
2014-Jul-12 00:28N 22°31' E 120°15'0 0.1
2014-Jul-11 23:28N 22°31' E 120°15'0 0.0
2014-Jul-11 21:28N 22°31' E 120°15'0 0.0
2014-Jul-11 20:16N 22°31' E 120°15'0 0.0
2014-Jul-11 19:28N 22°31' E 120°15'0 0.0
2014-Jul-11 18:28N 22°31' E 120°15'0 0.1
2014-Jul-11 17:28N 22°31' E 120°15'0 0.0
2014-Jul-11 16:28N 22°31' E 120°15'0 0.1
2014-Jul-11 15:22N 22°31' E 120°15'0 0.1
2014-Jul-11 14:28N 22°31' E 120°15'0 0.0
2014-Jul-11 13:28N 22°31' E 120°15'0 0.1
2014-Jul-11 12:28N 22°31' E 120°15'0 0.0
2014-Jul-11 11:28N 22°31' E 120°15'0 0.1
2014-Jul-11 10:28N 22°31' E 120°15'0 0.0
2014-Jul-11 09:28N 22°31' E 120°15'0 0.0
2014-Jul-11 08:28N 22°31' E 120°15'0 0.0
2014-Jul-11 07:28N 22°31' E 120°15'0 0.1
2014-Jul-11 06:28N 22°31' E 120°15'0 0.1
2014-Jul-11 05:28N 22°31' E 120°15'0 0.0
2014-Jul-11 04:28N 22°31' E 120°15'0 0.2
2014-Jul-11 03:28N 22°31' E 120°15'0 0.2
2014-Jul-11 02:28N 22°31' E 120°15'0 0.0
2014-Jul-11 01:10N 22°31' E 120°15'0 0.2
2014-Jul-11 00:28N 22°31' E 120°15'0 0.2
2014-Jul-10 23:28N 22°31' E 120°15'0 0.0
2014-Jul-10 22:28N 22°31' E 120°15'0 0.0
2014-Jul-10 19:28N 22°31' E 120°15'0 0.0
2014-Jul-10 18:28N 22°31' E 120°15'0 0.1
2014-Jul-10 17:28N 22°31' E 120°15'0 0.0
2014-Jul-10 16:28N 22°31' E 120°15'55811.8
2014-Jul-08 17:16N 20°14' E 110°34'8 9.7
2014-Jul-08 16:28N 20°12' E 110°26'8 9.1
2014-Jul-08 15:33N 20°10' E 110°18'1010.2
2014-Jul-08 14:33N 20°09' E 110°07'130 9.9
2014-Jul-08 01:22N 21°33' E 108°21'2 0.0
2014-Jul-06 05:17N 21°34' E 108°20'  

Dump ship's entire track history